createdAt,value
2023-05-10T00:00:12.181Z,509.00
2023-05-10T00:01:12.207Z,506.00
2023-05-10T00:02:12.387Z,510.00
2023-05-10T00:03:12.388Z,505.00
2023-05-10T00:04:12.526Z,505.00
2023-05-10T00:05:12.412Z,506.00
2023-05-10T00:06:12.459Z,508.00
2023-05-10T00:07:12.463Z,508.00
2023-05-10T00:08:12.499Z,509.00
2023-05-10T00:09:12.571Z,506.00
2023-05-10T00:10:12.606Z,508.00
2023-05-10T00:11:12.628Z,509.00
2023-05-10T00:12:12.682Z,500.00
2023-05-10T00:13:12.764Z,509.00
2023-05-10T00:14:12.788Z,510.00
2023-05-10T00:15:12.793Z,505.00
2023-05-10T00:16:12.947Z,503.00
2023-05-10T00:17:12.945Z,512.00
2023-05-10T00:18:12.939Z,507.00
2023-05-10T00:19:12.983Z,508.00
2023-05-10T00:20:13.071Z,506.00
2023-05-10T00:21:13.088Z,511.00
2023-05-10T00:22:13.135Z,508.00
2023-05-10T00:23:13.181Z,504.00
2023-05-10T00:24:13.227Z,505.00
2023-05-10T00:25:13.245Z,508.00
2023-05-10T00:26:13.334Z,502.00
2023-05-10T00:27:13.351Z,510.00
2023-05-10T00:28:13.404Z,505.00
2023-05-10T00:29:13.452Z,504.00
2023-05-10T00:30:13.580Z,506.00
2023-05-10T00:31:13.553Z,501.00
2023-05-10T00:32:13.684Z,511.00
2023-05-10T00:33:14.603Z,511.00
2023-05-10T00:34:13.613Z,511.00
2023-05-10T00:35:13.583Z,510.00
2023-05-10T00:36:13.600Z,509.00
2023-05-10T00:37:13.573Z,508.00
2023-05-10T00:38:13.574Z,513.00
2023-05-10T00:39:13.550Z,507.00
2023-05-10T00:40:13.584Z,507.00
2023-05-10T00:41:13.543Z,502.00
2023-05-10T00:42:13.584Z,508.00
2023-05-10T00:43:13.667Z,506.00
2023-05-10T00:44:13.701Z,504.00
2023-05-10T00:45:13.718Z,507.00
2023-05-10T00:46:13.829Z,506.00
2023-05-10T00:47:13.833Z,508.00
2023-05-10T00:48:13.883Z,505.00
2023-05-10T00:49:13.933Z,503.00
2023-05-10T00:50:14.097Z,508.00
2023-05-10T00:51:14.009Z,506.00
2023-05-10T00:52:14.053Z,506.00
2023-05-10T00:53:14.133Z,510.00
2023-05-10T00:54:14.143Z,508.00
2023-05-10T00:55:14.210Z,511.00
2023-05-10T00:56:14.286Z,509.00
2023-05-10T00:57:14.297Z,509.00
2023-05-10T00:58:14.378Z,511.00
2023-05-10T00:59:14.444Z,509.00
2023-05-10T01:00:14.618Z,511.00
2023-05-10T01:01:14.556Z,506.00
2023-05-10T01:02:14.574Z,506.00
2023-05-10T01:03:14.651Z,508.00
2023-05-10T01:04:14.700Z,507.00
2023-05-10T01:05:14.743Z,507.00
2023-05-10T01:06:14.787Z,509.00
2023-05-10T01:07:14.801Z,508.00
2023-05-10T01:08:14.859Z,503.00
2023-05-10T01:09:15.197Z,510.00
2023-05-10T01:10:15.210Z,506.00
2023-05-10T01:11:15.029Z,504.00
2023-05-10T01:12:15.076Z,508.00
2023-05-10T01:13:15.100Z,512.00
2023-05-10T01:14:15.131Z,505.00
2023-05-10T01:15:15.192Z,505.00
2023-05-10T01:16:16.246Z,504.00
2023-05-10T01:17:15.264Z,508.00
2023-05-10T01:18:15.308Z,507.00
2023-05-10T01:29:53.397Z,500.00
2023-05-10T01:30:49.780Z,500.00
2023-05-10T01:31:48.740Z,500.00
2023-05-10T01:32:48.705Z,500.00
2023-05-10T01:33:48.700Z,500.00
2023-05-10T01:34:48.707Z,500.00
2023-05-10T01:35:48.654Z,500.00
2023-05-10T01:36:48.656Z,500.00
2023-05-10T01:37:48.637Z,500.00
2023-05-10T01:38:48.657Z,505.00
2023-05-10T01:39:48.688Z,500.00
2023-05-10T01:40:48.699Z,504.00
2023-05-10T01:41:48.744Z,501.00
2023-05-10T01:42:49.397Z,500.00
2023-05-10T01:43:48.851Z,500.00
2023-05-10T01:44:48.916Z,500.00
2023-05-10T01:45:48.957Z,506.00
2023-05-10T01:46:49.004Z,500.00
2023-05-10T01:47:49.132Z,504.00
2023-05-10T01:48:49.154Z,500.00
2023-05-10T01:49:49.148Z,503.00
2023-05-10T01:50:49.165Z,503.00
2023-05-10T01:51:49.230Z,503.00
2023-05-10T01:52:49.334Z,500.00
2023-05-10T01:53:49.340Z,501.00
2023-05-10T01:54:49.466Z,504.00
2023-05-10T01:55:49.509Z,505.00
2023-05-10T01:56:49.488Z,506.00
2023-05-10T01:57:49.591Z,500.00
2023-05-10T01:58:49.629Z,507.00
2023-05-10T01:59:49.654Z,502.00
2023-05-10T02:00:49.694Z,504.00
2023-05-10T02:01:49.735Z,507.00
2023-05-10T02:02:49.855Z,502.00
2023-05-10T02:03:49.954Z,509.00
2023-05-10T02:04:49.922Z,511.00
2023-05-10T02:05:49.926Z,508.00
2023-05-10T02:06:49.983Z,508.00
2023-05-10T02:07:50.018Z,508.00
2023-05-10T02:08:50.080Z,505.00
2023-05-10T02:09:50.161Z,503.00
2023-05-10T02:10:50.176Z,510.00
2023-05-10T02:11:50.226Z,501.00
2023-05-10T02:12:50.268Z,502.00
2023-05-10T02:13:50.336Z,505.00
2023-05-10T02:14:50.375Z,504.00
2023-05-10T02:15:50.447Z,501.00
2023-05-10T02:16:50.535Z,508.00
2023-05-10T02:17:50.558Z,505.00
2023-05-10T02:18:50.558Z,506.00
2023-05-10T02:19:50.603Z,505.00
2023-05-10T02:20:50.630Z,504.00
2023-05-10T02:21:50.709Z,506.00
2023-05-10T02:22:50.751Z,504.00
2023-05-10T02:23:50.815Z,501.00
2023-05-10T02:24:50.839Z,507.00
2023-05-10T02:25:50.949Z,505.00
2023-05-10T02:26:50.948Z,506.00
2023-05-10T02:27:51.037Z,503.00
2023-05-10T02:28:51.067Z,505.00
2023-05-10T02:29:51.117Z,506.00
2023-05-10T02:30:51.200Z,510.00
2023-05-10T02:31:51.239Z,508.00
2023-05-10T02:32:51.273Z,513.00
2023-05-10T02:33:51.309Z,507.00
2023-05-10T02:34:51.383Z,509.00
2023-05-10T02:35:51.400Z,505.00
2023-05-10T02:36:51.459Z,510.00
2023-05-10T02:37:51.499Z,505.00
2023-05-10T02:38:51.536Z,501.00
2023-05-10T02:39:51.588Z,511.00
2023-05-10T02:40:51.638Z,507.00
2023-05-10T02:41:51.685Z,511.00
2023-05-10T02:42:51.751Z,501.00
2023-05-10T02:43:51.754Z,504.00
2023-05-10T02:44:51.815Z,506.00
2023-05-10T02:45:51.867Z,505.00
2023-05-10T02:46:51.865Z,511.00
2023-05-10T02:47:51.973Z,510.00
2023-05-10T02:48:52.483Z,507.00
2023-05-10T02:49:52.031Z,508.00
2023-05-10T02:50:52.141Z,503.00
2023-05-10T02:51:52.111Z,505.00
2023-05-10T02:52:52.178Z,504.00
2023-05-10T02:53:52.200Z,504.00
2023-05-10T02:54:52.252Z,507.00
2023-05-10T02:55:52.288Z,507.00
2023-05-10T02:56:52.339Z,504.00
2023-05-10T02:57:52.381Z,501.00
2023-05-10T02:58:52.454Z,510.00
2023-05-10T02:59:52.475Z,506.00
2023-05-10T03:00:52.524Z,511.00
2023-05-10T03:01:52.693Z,507.00
2023-05-10T03:02:52.697Z,508.00
2023-05-10T03:03:52.653Z,509.00
2023-05-10T03:04:52.775Z,509.00
2023-05-10T03:05:52.732Z,505.00
2023-05-10T03:06:52.803Z,505.00
2023-05-10T03:07:52.774Z,502.00
2023-05-10T03:08:52.848Z,507.00
2023-05-10T03:09:52.860Z,507.00
2023-05-10T03:10:52.900Z,511.00
2023-05-10T03:11:52.937Z,505.00
2023-05-10T03:12:53.028Z,506.00
2023-05-10T03:13:53.585Z,504.00
2023-05-10T03:14:53.058Z,505.00
2023-05-10T03:15:53.108Z,509.00
2023-05-10T03:16:53.153Z,510.00
2023-05-10T03:17:53.218Z,507.00
2023-05-10T03:18:53.329Z,511.00
2023-05-10T03:19:53.297Z,507.00
2023-05-10T03:20:53.377Z,508.00
2023-05-10T03:21:53.346Z,510.00
2023-05-10T03:22:53.385Z,509.00
2023-05-10T03:23:53.385Z,506.00
2023-05-10T03:24:53.439Z,505.00
2023-05-10T03:25:53.496Z,504.00
2023-05-10T03:26:53.491Z,505.00
2023-05-10T03:27:53.559Z,507.00
2023-05-10T03:28:53.573Z,504.00
2023-05-10T03:29:53.584Z,503.00
2023-05-10T03:30:53.612Z,503.00
2023-05-10T03:31:53.805Z,506.00
2023-05-10T03:32:53.782Z,507.00
2023-05-10T03:33:53.753Z,504.00
2023-05-10T03:34:53.806Z,505.00
2023-05-10T03:35:53.807Z,505.00
2023-05-10T03:36:53.861Z,507.00
2023-05-10T03:37:53.900Z,503.00
2023-05-10T03:38:53.919Z,507.00
2023-05-10T03:39:53.925Z,502.00
2023-05-10T03:40:53.954Z,508.00
2023-05-10T03:41:53.982Z,509.00
2023-05-10T03:42:54.030Z,510.00
2023-05-10T03:43:54.080Z,511.00
2023-05-10T03:44:54.074Z,509.00
2023-05-10T03:45:54.100Z,510.00
2023-05-10T03:46:54.156Z,508.00
2023-05-10T03:47:54.198Z,510.00
2023-05-10T03:48:54.194Z,511.00
2023-05-10T03:49:54.222Z,510.00
2023-05-10T03:50:54.291Z,509.00
2023-05-10T03:51:54.313Z,511.00
2023-05-10T03:52:54.910Z,509.00
2023-05-10T03:53:54.412Z,509.00
2023-05-10T03:54:54.381Z,509.00
2023-05-10T03:55:54.433Z,505.00
2023-05-10T03:56:55.444Z,511.00
2023-05-10T03:57:54.509Z,508.00
2023-05-10T03:58:54.564Z,507.00
2023-05-10T03:59:54.552Z,504.00
2023-05-10T04:00:54.602Z,506.00
2023-05-10T04:01:54.655Z,505.00
2023-05-10T04:02:54.642Z,509.00
2023-05-10T04:03:54.739Z,508.00
2023-05-10T04:04:54.680Z,511.00
2023-05-10T04:05:54.737Z,506.00
2023-05-10T04:06:54.750Z,502.00
2023-05-10T04:07:54.766Z,508.00
2023-05-10T04:08:54.848Z,501.00
2023-05-10T04:09:54.837Z,507.00
2023-05-10T04:10:54.878Z,502.00
2023-05-10T04:11:54.937Z,506.00
2023-05-10T04:12:54.962Z,508.00
2023-05-10T04:13:55.024Z,507.00
2023-05-10T04:14:54.998Z,507.00
2023-05-10T04:15:55.068Z,508.00
2023-05-10T04:16:55.082Z,508.00
2023-05-10T04:17:55.133Z,504.00
2023-05-10T04:18:55.158Z,513.00
2023-05-10T04:19:55.167Z,504.00
2023-05-10T04:20:55.198Z,508.00
2023-05-10T04:21:55.229Z,509.00
2023-05-10T04:22:55.221Z,504.00
2023-05-10T04:23:55.299Z,508.00
2023-05-10T04:24:55.306Z,506.00
2023-05-10T04:25:55.328Z,501.00
2023-05-10T04:26:56.542Z,507.00
2023-05-10T04:27:55.392Z,508.00
2023-05-10T04:28:55.445Z,508.00
2023-05-10T04:29:55.453Z,505.00
2023-05-10T04:30:55.529Z,507.00
2023-05-10T04:31:55.512Z,504.00
2023-05-10T04:32:55.588Z,506.00
2023-05-10T04:33:55.617Z,508.00
2023-05-10T04:34:55.619Z,512.00
2023-05-10T04:35:55.671Z,507.00
2023-05-10T04:36:55.673Z,503.00
2023-05-10T04:37:55.713Z,507.00
2023-05-10T04:38:55.733Z,509.00
2023-05-10T04:39:55.758Z,505.00
2023-05-10T04:40:55.789Z,504.00
2023-05-10T04:41:55.794Z,509.00
2023-05-10T04:42:55.860Z,505.00
2023-05-10T04:43:55.878Z,506.00
2023-05-10T04:44:55.891Z,508.00
2023-05-10T04:45:55.944Z,507.00
2023-05-10T04:46:56.002Z,508.00
2023-05-10T04:47:56.059Z,505.00
2023-05-10T04:48:56.088Z,509.00
2023-05-10T04:49:56.063Z,505.00
2023-05-10T04:50:56.108Z,504.00
2023-05-10T04:51:56.117Z,503.00
2023-05-10T04:52:56.129Z,508.00
2023-05-10T04:54:05.115Z,508.00
2023-05-10T04:54:57.163Z,508.00
2023-05-10T04:55:56.245Z,508.00
2023-05-10T04:56:56.150Z,508.00
2023-05-10T04:57:56.131Z,504.00
2023-05-10T04:58:56.150Z,503.00
2023-05-10T04:59:56.146Z,509.00
2023-05-10T05:00:56.100Z,507.00
2023-05-10T05:01:56.162Z,503.00
2023-05-10T05:02:56.183Z,506.00
2023-05-10T05:03:56.242Z,507.00
2023-05-10T05:04:56.093Z,511.00
2023-05-10T05:05:56.083Z,503.00
2023-05-10T05:06:56.077Z,506.00
2023-05-10T05:07:56.098Z,506.00
2023-05-10T05:08:56.059Z,505.00
2023-05-10T05:09:56.140Z,503.00
2023-05-10T05:10:56.119Z,506.00
2023-05-10T05:11:56.140Z,503.00
2023-05-10T05:12:56.194Z,507.00
2023-05-10T05:13:56.196Z,502.00
2023-05-10T05:14:56.230Z,507.00
2023-05-10T05:15:56.369Z,506.00
2023-05-10T05:16:56.244Z,511.00
2023-05-10T05:17:56.361Z,511.00
2023-05-10T05:18:56.306Z,508.00
2023-05-10T05:19:56.318Z,512.00
2023-05-10T05:20:56.315Z,511.00
2023-05-10T05:21:56.357Z,508.00
2023-05-10T05:22:56.384Z,507.00
2023-05-10T05:23:56.418Z,509.00
2023-05-10T05:24:56.447Z,508.00
2023-05-10T05:25:56.451Z,504.00
2023-05-10T05:26:56.500Z,505.00
2023-05-10T05:27:56.521Z,508.00
2023-05-10T05:28:56.538Z,504.00
2023-05-10T05:29:56.716Z,506.00
2023-05-10T05:30:56.627Z,506.00
2023-05-10T05:31:56.733Z,509.00
2023-05-10T05:32:56.721Z,507.00
2023-05-10T05:33:56.780Z,507.00
2023-05-10T05:34:56.772Z,510.00
2023-05-10T05:35:56.824Z,517.00
2023-05-10T05:36:56.786Z,540.00
2023-05-10T05:37:56.835Z,551.00
2023-05-10T05:38:56.827Z,560.00
2023-05-10T05:39:56.953Z,570.00
2023-05-10T05:40:56.974Z,574.00
2023-05-10T05:41:56.954Z,587.00
2023-05-10T05:42:57.054Z,595.00
2023-05-10T05:43:57.051Z,605.00
2023-05-10T05:44:57.143Z,603.00
2023-05-10T05:45:57.169Z,604.00
2023-05-10T05:46:57.200Z,602.00
2023-05-10T05:47:57.274Z,612.00
2023-05-10T05:48:57.316Z,614.00
2023-05-10T05:49:57.372Z,612.00
2023-05-10T05:50:57.525Z,619.00
2023-05-10T05:51:57.470Z,624.00
2023-05-10T05:52:57.523Z,628.00
2023-05-10T05:53:57.570Z,627.00
2023-05-10T05:54:57.637Z,628.00
2023-05-10T05:55:57.664Z,626.00
2023-05-10T05:56:59.770Z,629.00
2023-05-10T05:57:57.712Z,631.00
2023-05-10T05:58:57.765Z,624.00
2023-05-10T05:59:57.722Z,631.00
2023-05-10T06:00:57.750Z,636.00
2023-05-10T06:01:57.793Z,634.00
2023-05-10T06:02:57.790Z,634.00
2023-05-10T06:03:57.874Z,633.00
2023-05-10T06:04:58.002Z,636.00
2023-05-10T06:05:57.671Z,640.00
2023-05-10T06:06:57.660Z,637.00
2023-05-10T06:07:57.698Z,643.00
2023-05-10T06:08:57.690Z,640.00
2023-05-10T06:09:57.653Z,638.00
2023-05-10T06:10:57.755Z,641.00
2023-05-10T06:11:57.644Z,646.00
2023-05-10T06:12:57.716Z,650.00
2023-05-10T06:13:57.635Z,641.00
2023-05-10T06:14:57.626Z,647.00
2023-05-10T06:15:57.674Z,646.00
2023-05-10T06:16:57.743Z,646.00
2023-05-10T06:18:57.768Z,644.00
2023-05-10T06:19:57.591Z,646.00
2023-05-10T06:20:57.629Z,645.00
2023-05-10T06:21:57.580Z,647.00
2023-05-10T06:22:57.564Z,645.00
2023-05-10T06:23:57.561Z,648.00
2023-05-10T06:24:57.568Z,650.00
2023-05-10T06:25:57.551Z,650.00
2023-05-10T06:26:57.545Z,645.00
2023-05-10T06:27:57.530Z,648.00
2023-05-10T06:28:57.519Z,647.00
2023-05-10T06:30:05.762Z,649.00
2023-05-10T06:30:58.564Z,649.00
2023-05-10T06:31:57.607Z,650.00
2023-05-10T06:32:57.683Z,648.00
2023-05-10T06:33:57.503Z,648.00
2023-05-10T06:34:57.523Z,645.00
2023-05-10T06:35:57.538Z,648.00
2023-05-10T06:36:57.515Z,650.00
2023-05-10T06:37:57.526Z,659.00
2023-05-10T06:38:57.456Z,664.00
2023-05-10T06:39:57.553Z,673.00
2023-05-10T06:40:57.592Z,658.00
2023-05-10T06:41:57.491Z,654.00
2023-05-10T06:42:57.487Z,649.00
2023-05-10T06:43:57.542Z,653.00
2023-05-10T06:44:58.071Z,654.00
2023-05-10T06:45:57.700Z,660.00
2023-05-10T06:46:57.660Z,658.00
2023-05-10T06:47:57.769Z,666.00
2023-05-10T06:48:57.746Z,683.00
2023-05-10T06:49:57.826Z,715.00
2023-05-10T06:50:57.840Z,693.00
2023-05-10T06:51:57.895Z,709.00
2023-05-10T06:52:58.031Z,727.00
2023-05-10T06:53:58.014Z,756.00
2023-05-10T06:54:58.307Z,761.00
2023-05-10T06:55:58.131Z,777.00
2023-05-10T06:56:58.119Z,800.00
2023-05-10T06:57:58.145Z,806.00
2023-05-10T06:58:58.243Z,811.00
2023-05-10T06:59:58.248Z,818.00
2023-05-10T07:00:58.381Z,816.00
2023-05-10T07:01:58.357Z,822.00
2023-05-10T07:02:59.338Z,824.00
2023-05-10T07:03:58.299Z,827.00
2023-05-10T07:05:00.112Z,833.00
2023-05-10T07:05:58.314Z,823.00
2023-05-10T07:06:58.339Z,827.00
2023-05-10T07:07:58.286Z,850.00
2023-05-10T07:08:58.277Z,1026.00
2023-05-10T07:09:58.291Z,1219.00
2023-05-10T07:10:58.267Z,1213.00
2023-05-10T07:11:58.282Z,1174.00
2023-05-10T07:12:58.383Z,1154.00
2023-05-10T07:13:58.281Z,1019.00
2023-05-10T07:14:58.240Z,990.00
2023-05-10T07:15:58.242Z,948.00
2023-05-10T07:16:59.108Z,960.00
2023-05-10T07:17:58.425Z,974.00
2023-05-10T07:18:58.203Z,977.00
2023-05-10T07:19:58.242Z,975.00
2023-05-10T07:20:58.218Z,1001.00
2023-05-10T07:21:58.188Z,1002.00
2023-05-10T07:22:58.213Z,1011.00
2023-05-10T07:23:58.200Z,1007.00
2023-05-10T07:24:58.382Z,1012.00
2023-05-10T07:25:58.153Z,1013.00
2023-05-10T07:26:58.145Z,1004.00
2023-05-10T07:27:58.147Z,1011.00
2023-05-10T07:28:58.143Z,1016.00
2023-05-10T07:29:58.152Z,1032.00
2023-05-10T07:30:58.160Z,1040.00
2023-05-10T07:31:59.051Z,1020.00
2023-05-10T07:32:58.137Z,1020.00
2023-05-10T07:33:58.124Z,990.00
2023-05-10T07:34:58.562Z,929.00
2023-05-10T07:35:58.190Z,887.00
2023-05-10T07:36:59.095Z,764.00
2023-05-10T07:37:58.182Z,725.00
2023-05-10T07:38:58.121Z,726.00
2023-05-10T07:39:58.091Z,711.00
2023-05-10T07:40:58.060Z,722.00
2023-05-10T07:41:58.081Z,719.00
2023-05-10T07:42:58.209Z,745.00
2023-05-10T07:43:58.551Z,758.00
2023-05-10T07:44:58.073Z,772.00
2023-05-10T07:45:58.037Z,797.00
2023-05-10T07:46:58.015Z,821.00
2023-05-10T07:47:58.074Z,827.00
2023-05-10T07:48:58.015Z,848.00
2023-05-10T07:49:58.126Z,873.00
2023-05-10T07:50:58.033Z,888.00
2023-05-10T07:51:58.652Z,902.00
2023-05-10T07:52:58.647Z,934.00
2023-05-10T07:53:57.989Z,942.00
2023-05-10T07:54:58.108Z,972.00
2023-05-10T07:55:58.059Z,970.00
2023-05-10T07:56:58.050Z,985.00
2023-05-10T07:57:57.962Z,1005.00
2023-05-10T07:58:57.930Z,1035.00
2023-05-10T07:59:58.202Z,1053.00
2023-05-10T08:00:57.979Z,1091.00
2023-05-10T08:01:57.943Z,1089.00
2023-05-10T08:02:58.016Z,1104.00
2023-05-10T08:03:58.015Z,1125.00
2023-05-10T08:04:57.920Z,1130.00
2023-05-10T08:05:57.907Z,1140.00
2023-05-10T08:06:57.977Z,1142.00
2023-05-10T08:07:57.888Z,1145.00
2023-05-10T08:08:57.902Z,1129.00
2023-05-10T08:09:57.982Z,1090.00
2023-05-10T08:10:57.905Z,1092.00
2023-05-10T08:11:57.867Z,1078.00
2023-05-10T08:12:57.880Z,1070.00
2023-05-10T08:13:57.863Z,1073.00
2023-05-10T08:14:57.918Z,1075.00
2023-05-10T08:15:57.996Z,1095.00
2023-05-10T08:16:57.918Z,1084.00
2023-05-10T08:17:57.913Z,1104.00
2023-05-10T08:18:57.903Z,1123.00
2023-05-10T08:19:58.094Z,1137.00
2023-05-10T08:20:57.928Z,1139.00
2023-05-10T08:21:57.956Z,1165.00
2023-05-10T08:22:58.069Z,1175.00
2023-05-10T08:23:58.146Z,1155.00
2023-05-10T08:24:58.027Z,1168.00
2023-05-10T08:25:58.100Z,1186.00
2023-05-10T08:26:58.151Z,1209.00
2023-05-10T08:27:58.216Z,1210.00
2023-05-10T08:28:58.232Z,1197.00
2023-05-10T08:29:58.281Z,1211.00
2023-05-10T08:30:58.367Z,1200.00
2023-05-10T08:31:58.383Z,1217.00
2023-05-10T08:32:58.503Z,1209.00
2023-05-10T08:33:58.504Z,1187.00
2023-05-10T08:34:58.550Z,1174.00
2023-05-10T08:35:58.600Z,1164.00
2023-05-10T08:36:58.676Z,1157.00
2023-05-10T08:37:58.706Z,1162.00
2023-05-10T08:38:58.761Z,1159.00
2023-05-10T08:39:58.804Z,1160.00
2023-05-10T08:40:58.816Z,1128.00
2023-05-10T08:41:58.812Z,1132.00
2023-05-10T08:42:58.988Z,1123.00
2023-05-10T08:43:58.896Z,1118.00
2023-05-10T08:44:59.118Z,1127.00
2023-05-10T08:45:59.039Z,1136.00
2023-05-10T08:46:59.118Z,1137.00
2023-05-10T08:47:59.169Z,1170.00
2023-05-10T08:48:59.183Z,1209.00
2023-05-10T08:49:59.682Z,1244.00
2023-05-10T08:50:59.229Z,1225.00
2023-05-10T08:51:59.273Z,1228.00
2023-05-10T08:52:59.346Z,1266.00
2023-05-10T08:53:59.433Z,1309.00
2023-05-10T08:54:59.478Z,1361.00
2023-05-10T08:55:59.476Z,1417.00
2023-05-10T08:56:59.527Z,1439.00
2023-05-10T08:57:59.600Z,1473.00
2023-05-10T08:58:59.618Z,1499.00
2023-05-10T08:59:59.865Z,1546.00
2023-05-10T09:00:59.742Z,1570.00
2023-05-10T09:01:59.775Z,1615.00
2023-05-10T09:02:59.850Z,1638.00
2023-05-10T09:03:59.980Z,1661.00
2023-05-10T09:05:00.255Z,1705.00
2023-05-10T09:05:59.956Z,1726.00
2023-05-10T09:07:00.161Z,1736.00
2023-05-10T09:08:00.183Z,1759.00
2023-05-10T09:09:00.198Z,1809.00
2023-05-10T09:10:00.282Z,1825.00
2023-05-10T09:11:00.247Z,1863.00
2023-05-10T09:12:00.253Z,1919.00
2023-05-10T09:13:00.290Z,1963.00
2023-05-10T09:14:00.421Z,1967.00
2023-05-10T09:15:00.360Z,1988.00
2023-05-10T09:16:07.097Z,1991.00
2023-05-10T09:17:01.438Z,1993.00
2023-05-10T09:18:00.467Z,1996.00
2023-05-10T09:19:00.405Z,2012.00
2023-05-10T09:20:00.401Z,2034.00
2023-05-10T09:21:00.434Z,2085.00
2023-05-10T09:22:00.397Z,2075.00
2023-05-10T09:23:00.369Z,2079.00
2023-05-10T09:24:00.374Z,2070.00
2023-05-10T09:25:00.348Z,2101.00
2023-05-10T09:26:00.350Z,2102.00
2023-05-10T09:27:00.463Z,2125.00
2023-05-10T09:28:00.410Z,2136.00
2023-05-10T09:29:00.460Z,2128.00
2023-05-10T09:30:00.625Z,2146.00
2023-05-10T09:31:00.544Z,2159.00
2023-05-10T09:32:00.581Z,2123.00
2023-05-10T09:33:00.751Z,2062.00
2023-05-10T09:34:00.667Z,1766.00
2023-05-10T09:35:00.694Z,1521.00
2023-05-10T09:36:00.755Z,1320.00
2023-05-10T09:37:00.711Z,1295.00
2023-05-10T09:38:00.736Z,1307.00
2023-05-10T09:39:00.790Z,1293.00
2023-05-10T09:40:00.778Z,1301.00
2023-05-10T09:41:00.861Z,1200.00
2023-05-10T09:42:00.809Z,1185.00
2023-05-10T09:43:00.993Z,1121.00
2023-05-10T09:44:00.822Z,1051.00
2023-05-10T09:45:01.666Z,1062.00
2023-05-10T09:46:00.968Z,1149.00
2023-05-10T09:47:00.932Z,1152.00
2023-05-10T09:48:00.910Z,1129.00
2023-05-10T09:49:00.910Z,1135.00
2023-05-10T09:50:00.963Z,1130.00
2023-05-10T09:51:01.258Z,1067.00
2023-05-10T09:52:01.052Z,1036.00
2023-05-10T09:53:01.127Z,1045.00
2023-05-10T09:54:01.095Z,984.00
2023-05-10T09:55:01.088Z,964.00
2023-05-10T09:56:01.170Z,934.00
2023-05-10T09:57:01.144Z,902.00
2023-05-10T09:58:01.206Z,881.00
2023-05-10T09:59:01.197Z,764.00
2023-05-10T10:00:01.434Z,675.00
2023-05-10T10:01:01.333Z,656.00
2023-05-10T10:02:01.759Z,638.00
2023-05-10T10:03:01.411Z,643.00
2023-05-10T10:04:01.383Z,647.00
2023-05-10T10:05:01.414Z,634.00
2023-05-10T10:06:01.410Z,640.00
2023-05-10T10:07:02.145Z,651.00
2023-05-10T10:08:01.464Z,656.00
2023-05-10T10:09:01.562Z,679.00
2023-05-10T10:10:01.533Z,610.00
2023-05-10T10:11:01.646Z,615.00
2023-05-10T10:12:01.619Z,630.00
2023-05-10T10:13:01.563Z,661.00
2023-05-10T10:14:01.597Z,668.00
2023-05-10T10:15:01.567Z,658.00
2023-05-10T10:16:01.713Z,632.00
2023-05-10T10:17:08.026Z,630.00
2023-05-10T10:18:03.175Z,629.00
2023-05-10T10:19:01.708Z,631.00
2023-05-10T10:20:01.600Z,633.00
2023-05-10T10:21:01.610Z,607.00
2023-05-10T10:22:01.575Z,592.00
2023-05-10T10:23:01.623Z,594.00
2023-05-10T10:24:01.628Z,591.00
2023-05-10T10:25:01.568Z,605.00
2023-05-10T10:26:01.589Z,615.00
2023-05-10T10:27:01.581Z,618.00
2023-05-10T10:28:01.569Z,623.00
2023-05-10T10:29:01.535Z,612.00
2023-05-10T10:30:01.563Z,597.00
2023-05-10T10:31:01.708Z,606.00
2023-05-10T10:32:02.159Z,605.00
2023-05-10T10:33:04.018Z,590.00
2023-05-10T10:34:02.545Z,591.00
2023-05-10T10:35:01.548Z,542.00
2023-05-10T10:36:01.598Z,549.00
2023-05-10T10:37:01.516Z,535.00
2023-05-10T10:38:01.508Z,517.00
2023-05-10T10:39:01.489Z,529.00
2023-05-10T10:40:01.512Z,539.00
2023-05-10T10:41:01.517Z,553.00
2023-05-10T10:42:01.480Z,536.00
2023-05-10T10:43:01.446Z,538.00
2023-05-10T10:44:01.495Z,530.00
2023-05-10T10:45:01.447Z,531.00
2023-05-10T10:46:01.491Z,516.00
2023-05-10T10:47:01.496Z,525.00
2023-05-10T10:48:01.503Z,549.00
2023-05-10T10:49:01.466Z,560.00
2023-05-10T10:50:01.434Z,549.00
2023-05-10T10:51:01.678Z,536.00
2023-05-10T10:52:01.516Z,506.00
2023-05-10T10:53:01.493Z,508.00
2023-05-10T10:54:02.156Z,502.00
2023-05-10T10:55:01.502Z,513.00
2023-05-10T10:56:01.565Z,505.00
2023-05-10T10:57:01.577Z,500.00
2023-05-10T10:58:01.763Z,515.00
2023-05-10T10:59:01.627Z,502.00
2023-05-10T11:00:01.662Z,510.00
2023-05-10T11:01:01.776Z,523.00
2023-05-10T11:02:01.799Z,537.00
2023-05-10T11:03:01.912Z,585.00
2023-05-10T11:04:01.974Z,592.00
2023-05-10T11:05:01.856Z,613.00
2023-05-10T11:06:01.874Z,632.00
2023-05-10T11:07:01.908Z,644.00
2023-05-10T11:08:02.006Z,659.00
2023-05-10T11:09:01.978Z,658.00
2023-05-10T11:10:01.955Z,678.00
2023-05-10T11:11:01.971Z,725.00
2023-05-10T11:12:01.973Z,751.00
2023-05-10T11:13:02.021Z,777.00
2023-05-10T11:14:02.069Z,816.00
2023-05-10T11:15:02.124Z,853.00
2023-05-10T11:16:02.154Z,878.00
2023-05-10T11:17:02.148Z,905.00
2023-05-10T11:18:02.212Z,925.00
2023-05-10T11:19:02.236Z,938.00
2023-05-10T11:20:02.179Z,949.00
2023-05-10T11:21:02.252Z,963.00
2023-05-10T11:22:02.215Z,963.00
2023-05-10T11:23:02.306Z,964.00
2023-05-10T11:24:02.248Z,974.00
2023-05-10T11:25:02.266Z,981.00
2023-05-10T11:26:02.334Z,990.00
2023-05-10T11:27:02.299Z,987.00
2023-05-10T11:28:02.270Z,994.00
2023-05-10T11:29:02.288Z,995.00
2023-05-10T11:30:04.323Z,1015.00
2023-05-10T11:31:02.603Z,1026.00
2023-05-10T11:32:02.540Z,1020.00
2023-05-10T11:33:02.603Z,1013.00
2023-05-10T11:34:02.630Z,1034.00
2023-05-10T11:35:02.564Z,1033.00
2023-05-10T11:36:02.644Z,1033.00
2023-05-10T11:37:02.655Z,1034.00
2023-05-10T11:38:02.645Z,1044.00
2023-05-10T11:39:02.676Z,1041.00
2023-05-10T11:40:02.659Z,1041.00
2023-05-10T11:41:02.708Z,1035.00
2023-05-10T11:42:02.686Z,1041.00
2023-05-10T11:43:02.710Z,1045.00
2023-05-10T11:44:02.696Z,1046.00
2023-05-10T11:45:02.775Z,1046.00
2023-05-10T11:46:02.825Z,1052.00
2023-05-10T11:47:02.790Z,1041.00
2023-05-10T11:48:02.866Z,1040.00
2023-05-10T11:49:02.957Z,1049.00
2023-05-10T11:50:02.852Z,1046.00
2023-05-10T11:51:02.916Z,1048.00
2023-05-10T11:52:02.885Z,1048.00
2023-05-10T11:53:02.916Z,1050.00
2023-05-10T11:54:02.936Z,1053.00
2023-05-10T11:55:02.962Z,1050.00
2023-05-10T11:56:03.014Z,1033.00
2023-05-10T11:57:03.012Z,1042.00
2023-05-10T11:58:03.018Z,1047.00
2023-05-10T11:59:03.021Z,1049.00
2023-05-10T12:00:03.081Z,1043.00
2023-05-10T12:01:03.125Z,1051.00
2023-05-10T12:02:03.090Z,1045.00
2023-05-10T12:03:03.214Z,1055.00
2023-05-10T12:04:03.291Z,1057.00
2023-05-10T12:05:03.279Z,1042.00
2023-05-10T12:06:03.224Z,1047.00
2023-05-10T12:07:03.222Z,1061.00
2023-05-10T12:08:03.249Z,1042.00
2023-05-10T12:09:03.276Z,1046.00
2023-05-10T12:10:03.267Z,1043.00
2023-05-10T12:11:03.321Z,1034.00
2023-05-10T12:12:03.330Z,1040.00
2023-05-10T12:13:03.340Z,1051.00
2023-05-10T12:14:03.374Z,1050.00
2023-05-10T12:15:03.384Z,1042.00
2023-05-10T12:16:03.499Z,1055.00
2023-05-10T12:17:03.486Z,1040.00
2023-05-10T12:18:03.520Z,1049.00
2023-05-10T12:19:03.601Z,1046.00
2023-05-10T12:20:03.530Z,1042.00
2023-05-10T12:21:03.546Z,1041.00
2023-05-10T12:22:03.594Z,1040.00
2023-05-10T12:23:03.578Z,1036.00
2023-05-10T12:24:03.624Z,1034.00
2023-05-10T12:25:03.663Z,1039.00
2023-05-10T12:26:03.812Z,1029.00
2023-05-10T12:27:03.709Z,1037.00
2023-05-10T12:28:03.781Z,1025.00
2023-05-10T12:29:03.789Z,1028.00
2023-05-10T12:30:03.849Z,1032.00
2023-05-10T12:31:03.890Z,1034.00
2023-05-10T12:32:03.978Z,1036.00
2023-05-10T12:33:04.007Z,1031.00
2023-05-10T12:34:03.997Z,1044.00